Observation data for Turkey on 06/18/2019      Previous  Date       Current Mesonet Observations  Soil Data  Daily Summary Page  Observations in Plain Language
KTUR 180500Z 26026G34KT 21/15 A3008 RMK A01 T02050150  RH  072%=      5-min Rain = 0
KTUR 180505Z 26028G35KT 19/15 A3008 RMK A01 T01930153  RH  080%=      5-min Rain = 0
KTUR 180510Z 27026G36KT 19/15 A3009 RMK A01 T01860154  RH  084%=      5-min Rain = 0.02
KTUR 180515Z 27022G28KT 18/16 A3009 RMK A01 T01840155  RH  085%=      5-min Rain = 0
KTUR 180520Z 27021G28KT 19/15 A3009 RMK A01 T01860153  RH  083%=      5-min Rain = 0.01
KTUR 180525Z 28017G24KT 19/15 A3009 RMK A01 T01860154  RH  083%=      5-min Rain = 0
KTUR 180530Z 28014G19KT 18/16 A3009 RMK A01 T01840156  RH  086%=      5-min Rain = 0
KTUR 180535Z 28013KT 19/16 A301 RMK A01 T01850156  RH  085%=      5-min Rain = 0
KTUR 180540Z 27011KT 19/16 A301 RMK A01 T01860156  RH  084%=      5-min Rain = 0
KTUR 180545Z 26013KT 19/16 A301 RMK A01 T01850157  RH  086%=      5-min Rain = 0.03
KTUR 180550Z 26014KT 19/16 A301 RMK A01 T01860159  RH  086%=      5-min Rain = 0.01
KTUR 180555Z 26011KT 19/16 A301 RMK A01 T01870161  RH  087%=      5-min Rain = 0.01
KTUR 180600Z 25008KT 19/16 A3011 RMK A01 T01880160  RH  086%=      5-min Rain = 0
KTUR 180605Z 25005KT 19/16 A3011 RMK A01 T01890161  RH  086%=      5-min Rain = 0.01
KTUR 180610Z 27008G13KT 19/16 A301 RMK A01 T01900157  RH  083%=      5-min Rain = 0.01
KTUR 180615Z 28011KT 19/16 A3009 RMK A01 T01900155  RH  082%=      5-min Rain = 0.01
KTUR 180620Z 27013KT 19/15 A3009 RMK A01 T01880154  RH  082%=      5-min Rain = 0.01
KTUR 180625Z 27014KT 19/15 A3008 RMK A01 T01880154  RH  082%=      5-min Rain = 0
KTUR 180630Z 26015KT 19/15 A3008 RMK A01 T01860154  RH  083%=      5-min Rain = 0.01
KTUR 180635Z 26017KT 19/15 A3007 RMK A01 T01880150  RH  080%=      5-min Rain = 0.01
KTUR 180640Z 26015KT 19/15 A3007 RMK A01 T01890149  RH  080%=      5-min Rain = 0.01
KTUR 180645Z 27015G21KT 19/15 A3006 RMK A01 T01880147  RH  078%=      5-min Rain = 0.01
KTUR 180650Z 27012KT 19/15 A3006 RMK A01 T01850148  RH  081%=      5-min Rain = 0.01
KTUR 180655Z 27012KT 19/15 A3005 RMK A01 T01880145  RH  078%=      5-min Rain = 0.01
KTUR 180700Z 27016G21KT 19/14 A3004 RMK A01 T01910143  RH  075%=      5-min Rain = 0
KTUR 180705Z 27018G25KT 19/15 A3003 RMK A01 T01890145  RH  077%=      5-min Rain = 0
KTUR 180710Z 27021G26KT 19/14 A3001 RMK A01 T01910142  RH  075%=      5-min Rain = 0
KTUR 180715Z 29021KT 20/14 A2998 RMK A01 T01960138  RH  070%=      5-min Rain = 0
KTUR 180720Z 29017KT 19/14 A2998 RMK A01 T01920141  RH  074%=      5-min Rain = 0
KTUR 180725Z 29015G20KT 19/14 A2998 RMK A01 T01870143  RH  077%=      5-min Rain = 0
KTUR 180730Z 29011KT 19/14 A2997 RMK A01 T01910142  RH  075%=      5-min Rain = 0
KTUR 180735Z 29010KT 19/14 A2997 RMK A01 T01890144  RH  077%=      5-min Rain = 0
KTUR 180740Z 30011KT 19/14 A2996 RMK A01 T01890144  RH  076%=      5-min Rain = 0
KTUR 180745Z 30012KT 19/14 A2995 RMK A01 T01920140  RH  073%=      5-min Rain = 0
KTUR 180750Z 27012G18KT 19/14 A2996 RMK A01 T01880144  RH  077%=      5-min Rain = 0
KTUR 180755Z 28012KT 19/14 A2996 RMK A01 T01880143  RH  077%=      5-min Rain = 0
KTUR 180800Z 28016G22KT 19/14 A2996 RMK A01 T01900141  RH  074%=      5-min Rain = 0
KTUR 180805Z 28016KT 20/14 A2995 RMK A01 T01980137  RH  069%=      5-min Rain = 0
KTUR 180810Z 28013KT 20/13 A2995 RMK A01 T02030134  RH  066%=      5-min Rain = 0
KTUR 180815Z 28012KT 21/13 A2994 RMK A01 T02090130  RH  062%=      5-min Rain = 0
KTUR 180820Z 28010KT 22/13 A2993 RMK A01 T02150128  RH  059%=      5-min Rain = 0
KTUR 180825Z 26010KT 21/13 A2993 RMK A01 T02130131  RH  060%=      5-min Rain = 0
KTUR 180830Z 26008KT 22/13 A2993 RMK A01 T02160132  RH  060%=      5-min Rain = 0
KTUR 180835Z 31006KT 21/14 A2992 RMK A01 T02090137  RH  065%=      5-min Rain = 0
KTUR 180840Z 31008KT 20/14 A2992 RMK A01 T02020139  RH  069%=      5-min Rain = 0
KTUR 180845Z 32006KT 20/14 A2991 RMK A01 T02000139  RH  069%=      5-min Rain = 0
KTUR 180850Z 34005KT 20/14 A2991 RMK A01 T01980143  RH  072%=      5-min Rain = 0
KTUR 180855Z 30002KT 20/15 A2991 RMK A01 T02000145  RH  072%=      5-min Rain = 0
KTUR 180900Z 15010G16KT 20/15 A2992 RMK A01 T02000149  RH  074%=      5-min Rain = 0
KTUR 180905Z 17014KT 20/15 A2993 RMK A01 T01980150  RH  075%=      5-min Rain = 0
KTUR 180910Z 18011G18KT 19/15 A2994 RMK A01 T01940150  RH  077%=      5-min Rain = 0
KTUR 180915Z 16011KT 20/15 A2993 RMK A01 T01980145  RH  073%=      5-min Rain = 0
KTUR 180920Z 16012KT 20/14 A2994 RMK A01 T02010144  RH  071%=      5-min Rain = 0
KTUR 180925Z 16013KT 20/15 A2994 RMK A01 T01980145  RH  073%=      5-min Rain = 0
KTUR 180930Z 15012KT 20/14 A2994 RMK A01 T02000142  RH  071%=      5-min Rain = 0
KTUR 180935Z 14011KT 20/14 A2993 RMK A01 T02000142  RH  071%=      5-min Rain = 0
KTUR 180940Z 15011KT 20/14 A2993 RMK A01 T02000140  RH  070%=      5-min Rain = 0
KTUR 180945Z 14011KT 20/14 A2993 RMK A01 T01980141  RH  071%=      5-min Rain = 0
KTUR 180950Z 14009KT 20/14 A2993 RMK A01 T01950144  RH  074%=      5-min Rain = 0
KTUR 180955Z 14007KT 19/15 A2992 RMK A01 T01930146  RH  076%=      5-min Rain = 0
KTUR 181000Z 14007KT 19/15 A2992 RMK A01 T01930146  RH  076%=      5-min Rain = 0
KTUR 181005Z 14007KT 19/15 A2992 RMK A01 T01930147  RH  076%=      5-min Rain = 0
KTUR 181010Z 12008KT 19/15 A2991 RMK A01 T01930148  RH  077%=      5-min Rain = 0
KTUR 181015Z 10009KT 19/15 A2991 RMK A01 T01930147  RH  076%=      5-min Rain = 0
KTUR 181020Z 10005KT 19/15 A2991 RMK A01 T01930145  RH  076%=      5-min Rain = 0
KTUR 181025Z 11004KT 19/14 A2992 RMK A01 T01930144  RH  075%=      5-min Rain = 0
KTUR 181030Z 12005KT 19/15 A2992 RMK A01 T01940146  RH  075%=      5-min Rain = 0
KTUR 181035Z 11006KT 19/15 A2992 RMK A01 T01930148  RH  077%=      5-min Rain = 0
KTUR 181040Z 09008KT 19/15 A2992 RMK A01 T01930146  RH  076%=      5-min Rain = 0
KTUR 181045Z 09008KT 19/15 A2992 RMK A01 T01920145  RH  076%=      5-min Rain = 0
KTUR 181050Z 08008KT 19/14 A2992 RMK A01 T01920144  RH  076%=      5-min Rain = 0
KTUR 181055Z 08008KT 19/15 A2992 RMK A01 T01880148  RH  079%=      5-min Rain = 0
KTUR 181100Z 08007KT 19/15 A2992 RMK A01 T01850148  RH  081%=      5-min Rain = 0
KTUR 181105Z 07006KT 18/15 A2993 RMK A01 T01830148  RH  082%=      5-min Rain = 0
KTUR 181110Z 08004KT 18/15 A2993 RMK A01 T01830147  RH  081%=      5-min Rain = 0
KTUR 181115Z 12004KT 19/14 A2993 RMK A01 T01850143  RH  078%=      5-min Rain = 0
KTUR 181120Z 13005KT 19/14 A2993 RMK A01 T01900141  RH  075%=      5-min Rain = 0
KTUR 181125Z 14006KT 19/14 A2994 RMK A01 T01920142  RH  074%=      5-min Rain = 0
KTUR 181130Z 14006KT 19/14 A2994 RMK A01 T01920143  RH  075%=      5-min Rain = 0
KTUR 181135Z 12007KT 19/14 A2993 RMK A01 T01930143  RH  074%=      5-min Rain = 0
KTUR 181140Z 11007KT 19/14 A2992 RMK A01 T01900144  RH  076%=      5-min Rain = 0
KTUR 181145Z 13007KT 19/14 A2993 RMK A01 T01890144  RH  077%=      5-min Rain = 0
KTUR 181150Z 14007KT 19/14 A2993 RMK A01 T01890144  RH  077%=      5-min Rain = 0
KTUR 181155Z 15006KT 19/14 A2993 RMK A01 T01910142  RH  074%=      5-min Rain = 0
KTUR 181200Z 15006KT 19/14 A2994 RMK A01 T01920142  RH  075%=      5-min Rain = 0
KTUR 181205Z 15006KT 19/14 A2994 RMK A01 T01900143  RH  076%=      5-min Rain = 0
KTUR 181210Z 17005KT 19/15 A2994 RMK A01 T01890146  RH  078%=      5-min Rain = 0
KTUR 181215Z 19006KT 18/15 A2994 RMK A01 T01830146  RH  081%=      5-min Rain = 0
KTUR 181220Z 20008KT 18/15 A2994 RMK A01 T01800147  RH  083%=      5-min Rain = 0
KTUR 181225Z 19009KT 18/15 A2994 RMK A01 T01840146  RH  080%=      5-min Rain = 0
KTUR 181230Z 19009KT 19/15 A2994 RMK A01 T01890146  RH  078%=      5-min Rain = 0
KTUR 181235Z 19008KT 19/15 A2994 RMK A01 T01920146  RH  076%=      5-min Rain = 0
KTUR 181240Z 19006KT 19/15 A2995 RMK A01 T01940148  RH  076%=      5-min Rain = 0
KTUR 181245Z 21005KT 20/15 A2995 RMK A01 T01950149  RH  076%=      5-min Rain = 0
KTUR 181250Z 24005KT 20/16 A2997 RMK A01 T01980155  RH  078%=      5-min Rain = 0
KTUR 181255Z 25006KT 20/15 A2997 RMK A01 T01990154  RH  077%=      5-min Rain = 0
KTUR 181300Z 25007KT 20/15 A2998 RMK A01 T01990151  RH  076%=      5-min Rain = 0
KTUR 181305Z 28008KT 20/15 A2998 RMK A01 T02020154  RH  076%=      5-min Rain = 0
KTUR 181310Z 29010KT 20/16 A2999 RMK A01 T02040156  RH  076%=      5-min Rain = 0
KTUR 181315Z 29009KT 20/16 A2999 RMK A01 T02030157  RH  076%=      5-min Rain = 0
KTUR 181320Z 29008KT 21/16 A2999 RMK A01 T02060156  RH  075%=      5-min Rain = 0
KTUR 181325Z 28008KT 21/16 A2999 RMK A01 T02090155  RH  073%=      5-min Rain = 0
KTUR 181330Z 27008KT 21/15 A2999 RMK A01 T02130153  RH  070%=      5-min Rain = 0
KTUR 181335Z 24009KT 22/15 A2999 RMK A01 T02200152  RH  067%=      5-min Rain = 0
KTUR 181340Z 23010KT 23/15 A30 RMK A01 T02250151  RH  064%=      5-min Rain = 0
KTUR 181345Z 22010KT 23/15 A30 RMK A01 T02260149  RH  063%=      5-min Rain = 0
KTUR 181350Z 22010KT 23/15 A30 RMK A01 T02260151  RH  064%=      5-min Rain = 0
KTUR 181355Z 20009KT 23/15 A2999 RMK A01 T02280150  RH  063%=      5-min Rain = 0
KTUR 181400Z 20009KT 23/15 A2999 RMK A01 T02290151  RH  063%=      5-min Rain = 0
KTUR 181405Z 21009KT 23/15 A2999 RMK A01 T02310149  RH  061%=      5-min Rain = 0
KTUR 181410Z 21009KT 23/15 A2999 RMK A01 T02330150  RH  061%=      5-min Rain = 0
KTUR 181415Z 22008KT 23/15 A2999 RMK A01 T02340149  RH  060%=      5-min Rain = 0
KTUR 181420Z 22006KT 24/15 A2999 RMK A01 T02350147  RH  059%=      5-min Rain = 0
KTUR 181425Z 23006KT 23/15 A2999 RMK A01 T02340146  RH  059%=      5-min Rain = 0
KTUR 181430Z 21006KT 24/15 A2999 RMK A01 T02360149  RH  059%=      5-min Rain = 0
KTUR 181435Z 23007KT 24/15 A2999 RMK A01 T02390150  RH  059%=      5-min Rain = 0
KTUR 181440Z 23009KT 24/15 A2999 RMK A01 T02390151  RH  059%=      5-min Rain = 0
KTUR 181445Z 22008KT 24/15 A2999 RMK A01 T02400152  RH  059%=      5-min Rain = 0
KTUR 181450Z 28005KT 24/15 A2999 RMK A01 T02380146  RH  058%=      5-min Rain = 0
KTUR 181455Z 27006G11KT 24/15 A2999 RMK A01 T02420152  RH  058%=      5-min Rain = 0
KTUR 181500Z 27009KT 25/15 A2999 RMK A01 T02450152  RH  057%=      5-min Rain = 0
KTUR 181505Z 25009KT 24/15 A2999 RMK A01 T02440151  RH  057%=      5-min Rain = 0
KTUR 181510Z 24008KT 24/15 A2999 RMK A01 T02430152  RH  058%=      5-min Rain = 0
KTUR 181515Z 25007KT 24/15 A2999 RMK A01 T02440154  RH  059%=      5-min Rain = 0
KTUR 181520Z 25008KT 25/16 A2999 RMK A01 T02460157  RH  059%=      5-min Rain = 0
KTUR 181525Z 24008KT 24/16 A2999 RMK A01 T02440157  RH  060%=      5-min Rain = 0
KTUR 181530Z 23008KT 24/16 A2999 RMK A01 T02430156  RH  059%=      5-min Rain = 0
KTUR 181535Z 24008KT 25/16 A2999 RMK A01 T02450157  RH  059%=      5-min Rain = 0.01
KTUR 181540Z 25008KT 25/16 A30 RMK A01 T02460158  RH  059%=      5-min Rain = 0
KTUR 181545Z 24005KT 25/16 A30 RMK A01 T02470157  RH  059%=      5-min Rain = 0
KTUR 181550Z 24007KT 25/16 A2999 RMK A01 T02480160  RH  059%=      5-min Rain = 0
KTUR 181555Z 24006KT 25/16 A2999 RMK A01 T02510164  RH  060%=      5-min Rain = 0
KTUR 181600Z 22006KT 25/16 A30 RMK A01 T02490159  RH  059%=      5-min Rain = 0
KTUR 181605Z 25003KT 25/16 A30 RMK A01 T02510159  RH  058%=      5-min Rain = 0
KTUR 181610Z 27004KT 25/16 A30 RMK A01 T02520159  RH  058%=      5-min Rain = 0
KTUR 181615Z 29004G9KT 25/16 A30 RMK A01 T02520157  RH  057%=      5-min Rain = 0
KTUR 181620Z 28005G10KT 25/16 A30 RMK A01 T02530159  RH  057%=      5-min Rain = 0
KTUR 181625Z 27005G10KT 26/16 A30 RMK A01 T02560160  RH  057%=      5-min Rain = 0
KTUR 181630Z 24006KT 26/16 A30 RMK A01 T02560158  RH  056%=      5-min Rain = 0
KTUR 181635Z 25004KT 26/16 A30 RMK A01 T02560160  RH  056%=      5-min Rain = 0
KTUR 181640Z 24005KT 26/16 A30 RMK A01 T02590161  RH  056%=      5-min Rain = 0
KTUR 181645Z 21005KT 26/16 A30 RMK A01 T02580159  RH  056%=      5-min Rain = 0
KTUR 181650Z 27006G13KT 26/17 A30 RMK A01 T02610165  RH  057%=      5-min Rain = 0
KTUR 181655Z 28005KT 26/16 A30 RMK A01 T02630162  RH  055%=      5-min Rain = 0
KTUR 181700Z 28003KT 26/16 A30 RMK A01 T02610163  RH  056%=      5-min Rain = 0
KTUR 181705Z 23004KT 26/16 A30 RMK A01 T02630162  RH  055%=      5-min Rain = 0
KTUR 181710Z 25005G10KT 26/16 A30 RMK A01 T02640163  RH  055%=      5-min Rain = 0
KTUR 181715Z 25002KT 27/16 A30 RMK A01 T02650162  RH  055%=      5-min Rain = 0
KTUR 181720Z 21003G8KT 27/16 A2999 RMK A01 T02670164  RH  054%=      5-min Rain = 0
KTUR 181725Z 21004KT 27/16 A30 RMK A01 T02660163  RH  054%=      5-min Rain = 0
KTUR 181730Z 20001G7KT 27/16 A2999 RMK A01 T02660161  RH  054%=      5-min Rain = 0
KTUR 181735Z 21004KT 27/17 A2999 RMK A01 T02730168  RH  054%=      5-min Rain = 0
KTUR 181740Z 23006KT 27/17 A2999 RMK A01 T02720168  RH  054%=      5-min Rain = 0
KTUR 181745Z 26005KT 27/16 A2999 RMK A01 T02700164  RH  053%=      5-min Rain = 0
KTUR 181750Z 24007KT 27/17 A2999 RMK A01 T02700165  RH  054%=      5-min Rain = 0
KTUR 181755Z 23005G11KT 27/17 A2999 RMK A01 T02700165  RH  054%=      5-min Rain = 0
KTUR 181800Z 24003G8KT 27/17 A2999 RMK A01 T02730167  RH  054%=      5-min Rain = 0
KTUR 181805Z 26005KT 28/17 A2999 RMK A01 T02750168  RH  053%=      5-min Rain = 0
KTUR 181810Z 24007KT 28/17 A2999 RMK A01 T02770170  RH  053%=      5-min Rain = 0
KTUR 181815Z 21007KT 28/17 A2998 RMK A01 T02790173  RH  054%=      5-min Rain = 0
KTUR 181820Z 22005KT 28/17 A2998 RMK A01 T02760169  RH  053%=      5-min Rain = 0
KTUR 181825Z 24004KT 28/17 A2998 RMK A01 T02780169  RH  053%=      5-min Rain = 0
KTUR 181830Z 27004KT 28/17 A2998 RMK A01 T02790171  RH  053%=      5-min Rain = 0
KTUR 181835Z 26003G8KT 28/17 A2997 RMK A01 T02810172  RH  053%=      5-min Rain = 0
KTUR 181840Z 18004KT 28/17 A2997 RMK A01 T02840174  RH  052%=      5-min Rain = 0
KTUR 181845Z 25005KT 29/17 A2997 RMK A01 T02850174  RH  052%=      5-min Rain = 0
KTUR 181850Z 19002KT 29/17 A2997 RMK A01 T02850170  RH  051%=      5-min Rain = 0
KTUR 181855Z 19001KT 29/17 A2996 RMK A01 T02860172  RH  051%=      5-min Rain = 0
KTUR 181900Z 19005KT 29/18 A2996 RMK A01 T02890177  RH  052%=      5-min Rain = 0
KTUR 181905Z 17004G10KT 29/18 A2996 RMK A01 T02870176  RH  052%=      5-min Rain = 0
KTUR 181910Z 30001KT 29/18 A2995 RMK A01 T02910178  RH  052%=      5-min Rain = 0
KTUR 181915Z 16005KT 30/18 A2995 RMK A01 T02960180  RH  051%=      5-min Rain = 0
KTUR 181920Z 18003G10KT 29/18 A2995 RMK A01 T02940176  RH  050%=      5-min Rain = 0
KTUR 181925Z 18005KT 30/18 A2995 RMK A01 T02950177  RH  050%=      5-min Rain = 0
KTUR 181930Z 18006G12KT 30/18 A2994 RMK A01 T02950182  RH  052%=      5-min Rain = 0
KTUR 181935Z 13006G11KT 30/18 A2994 RMK A01 T03010182  RH  050%=      5-min Rain = 0
KTUR 181940Z 13005KT 30/18 A2994 RMK A01 T03000180  RH  050%=      5-min Rain = 0
KTUR 181945Z 12007KT 30/18 A2994 RMK A01 T03020184  RH  051%=      5-min Rain = 0
KTUR 181950Z 11004KT 30/18 A2994 RMK A01 T03000180  RH  050%=      5-min Rain = 0
KTUR 181955Z 13004KT 29/18 A2994 RMK A01 T02940176  RH  050%=      5-min Rain = 0
KTUR 182000Z 14005KT 30/18 A2994 RMK A01 T02950180  RH  051%=      5-min Rain = 0
KTUR 182005Z 18004KT 30/18 A2993 RMK A01 T02990181  RH  050%=      5-min Rain = 0
KTUR 182010Z 14005G10KT 30/18 A2993 RMK A01 T03020182  RH  050%=      5-min Rain = 0
KTUR 182015Z 13004KT 30/18 A2993 RMK A01 T03000178  RH  049%=      5-min Rain = 0
KTUR 182020Z 11006G13KT 30/18 A2993 RMK A01 T02990181  RH  050%=      5-min Rain = 0
KTUR 182025Z 11007KT 30/18 A2993 RMK A01 T02970178  RH  050%=      5-min Rain = 0
KTUR 182030Z 13007KT 30/18 A2992 RMK A01 T03020183  RH  050%=      5-min Rain = 0
KTUR 182035Z 17005KT 31/18 A2992 RMK A01 T03050182  RH  049%=      5-min Rain = 0
KTUR 182040Z 16007G12KT 31/18 A2992 RMK A01 T03060183  RH  049%=      5-min Rain = 0
KTUR 182045Z 12007G12KT 31/19 A2991 RMK A01 T03090185  RH  049%=      5-min Rain = 0
KTUR 182050Z 15007KT 31/18 A2991 RMK A01 T03070184  RH  049%=      5-min Rain = 0
KTUR 182055Z 13009G14KT 31/19 A2991 RMK A01 T03090186  RH  049%=      5-min Rain = 0
KTUR 182100Z 13007KT 31/18 A2991 RMK A01 T03070184  RH  049%=      5-min Rain = 0
KTUR 182105Z 12008KT 30/18 A299 RMK A01 T03030184  RH  050%=      5-min Rain = 0
KTUR 182110Z 13009KT 31/19 A299 RMK A01 T03050188  RH  051%=      5-min Rain = 0
KTUR 182115Z 13006KT 31/19 A299 RMK A01 T03090188  RH  050%=      5-min Rain = 0
KTUR 182120Z 16008G14KT 31/19 A2989 RMK A01 T03080188  RH  050%=      5-min Rain = 0
KTUR 182125Z 18007G12KT 31/19 A2989 RMK A01 T03090188  RH  050%=      5-min Rain = 0
KTUR 182130Z 18005KT 31/19 A2989 RMK A01 T03120190  RH  050%=      5-min Rain = 0
KTUR 182135Z 14004KT 31/19 A2988 RMK A01 T03140190  RH  049%=      5-min Rain = 0
KTUR 182140Z 17005KT 32/19 A2988 RMK A01 T03180194  RH  049%=      5-min Rain = 0
KTUR 182145Z 14007KT 32/19 A2988 RMK A01 T03160192  RH  049%=      5-min Rain = 0
KTUR 182150Z 14008KT 32/19 A2988 RMK A01 T03160194  RH  050%=      5-min Rain = 0
KTUR 182155Z 14006KT 32/19 A2987 RMK A01 T03150193  RH  050%=      5-min Rain = 0
KTUR 182200Z 16006KT 31/19 A2987 RMK A01 T03090190  RH  051%=      5-min Rain = 0
KTUR 182205Z 14003G10KT 31/19 A2987 RMK A01 T03100189  RH  050%=      5-min Rain = 0
KTUR 182210Z 11002G9KT 31/19 A2986 RMK A01 T03100188  RH  050%=      5-min Rain = 0
KTUR 182215Z 11007KT 31/19 A2986 RMK A01 T03090190  RH  051%=      5-min Rain = 0
KTUR 182220Z 11005KT 31/19 A2986 RMK A01 T03080189  RH  050%=      5-min Rain = 0
KTUR 182225Z 10007G13KT 31/19 A2986 RMK A01 T03130190  RH  049%=      5-min Rain = 0
KTUR 182230Z 14007KT 32/19 A2986 RMK A01 T03180190  RH  048%=      5-min Rain = 0
KTUR 182235Z 12008G13KT 32/19 A2985 RMK A01 T03160190  RH  048%=      5-min Rain = 0
KTUR 182240Z 13009KT 32/19 A2985 RMK A01 T03160189  RH  048%=      5-min Rain = 0
KTUR 182245Z 13008KT 32/19 A2985 RMK A01 T03160190  RH  048%=      5-min Rain = 0
KTUR 182250Z 12008KT 32/19 A2985 RMK A01 T03230189  RH  047%=      5-min Rain = 0
KTUR 182255Z 13009KT 32/19 A2984 RMK A01 T03230187  RH  045%=      5-min Rain = 0
KTUR 182300Z 12010KT 32/18 A2984 RMK A01 T03220183  RH  045%=      5-min Rain = 0
KTUR 182305Z 15008KT 32/18 A2984 RMK A01 T03200183  RH  045%=      5-min Rain = 0
KTUR 182310Z 13007KT 32/18 A2984 RMK A01 T03220184  RH  045%=      5-min Rain = 0
KTUR 182315Z 16008KT 32/18 A2983 RMK A01 T03230183  RH  045%=      5-min Rain = 0
KTUR 182320Z 16006KT 32/18 A2983 RMK A01 T03220183  RH  045%=      5-min Rain = 0
KTUR 182325Z 13003KT 32/18 A2983 RMK A01 T03240181  RH  044%=      5-min Rain = 0
KTUR 182330Z 12007KT 33/19 A2983 RMK A01 T03260185  RH  044%=      5-min Rain = 0
KTUR 182335Z 13007KT 33/18 A2982 RMK A01 T03260182  RH  044%=      5-min Rain = 0
KTUR 182340Z 11007KT 33/18 A2982 RMK A01 T03260183  RH  044%=      5-min Rain = 0
KTUR 182345Z 10005KT 33/18 A2982 RMK A01 T03270180  RH  043%=      5-min Rain = 0
KTUR 182350Z 14009G14KT 33/19 A2982 RMK A01 T03280186  RH  044%=      5-min Rain = 0
KTUR 182355Z 13009KT 33/19 A2981 RMK A01 T03270187  RH  045%=      5-min Rain = 0
KTUR 190000Z 13007KT 32/19 A2981 RMK A01 T03230186  RH  045%=      5-min Rain = 0
KTUR 190005Z 14010G15KT 32/19 A2981 RMK A01 T03240187  RH  045%=      5-min Rain = 0
KTUR 190010Z 15012KT 32/19 A2981 RMK A01 T03180188  RH  047%=      5-min Rain = 0
KTUR 190015Z 15012KT 32/19 A2981 RMK A01 T03160188  RH  048%=      5-min Rain = 0
KTUR 190020Z 14012KT 31/19 A2981 RMK A01 T03140187  RH  048%=      5-min Rain = 0
KTUR 190025Z 14011KT 31/19 A2981 RMK A01 T03110189  RH  050%=      5-min Rain = 0
KTUR 190030Z 14011KT 31/19 A2981 RMK A01 T03090190  RH  050%=      5-min Rain = 0
KTUR 190035Z 14010KT 31/19 A2981 RMK A01 T03080190  RH  051%=      5-min Rain = 0
KTUR 190040Z 14009KT 31/19 A2981 RMK A01 T03070191  RH  051%=      5-min Rain = 0
KTUR 190045Z 14009KT 31/19 A2981 RMK A01 T03060190  RH  051%=      5-min Rain = 0
KTUR 190050Z 14008KT 31/19 A2981 RMK A01 T03060190  RH  052%=      5-min Rain = 0
KTUR 190055Z 12007KT 30/19 A2982 RMK A01 T03040193  RH  053%=      5-min Rain = 0
KTUR 190100Z 12008KT 30/20 A2982 RMK A01 T03020195  RH  054%=      5-min Rain = 0
KTUR 190105Z 11008KT 30/20 A2982 RMK A01 T03000197  RH  056%=      5-min Rain = 0
KTUR 190110Z 11009KT 30/20 A2982 RMK A01 T02980200  RH  057%=      5-min Rain = 0
KTUR 190115Z 11008KT 30/20 A2983 RMK A01 T02960201  RH  058%=      5-min Rain = 0
KTUR 190120Z 11008KT 30/20 A2983 RMK A01 T02950202  RH  059%=      5-min Rain = 0
KTUR 190125Z 11009KT 29/20 A2984 RMK A01 T02940202  RH  059%=      5-min Rain = 0
KTUR 190130Z 12009KT 29/20 A2984 RMK A01 T02920201  RH  060%=      5-min Rain = 0
KTUR 190135Z 12009KT 29/20 A2983 RMK A01 T02910200  RH  060%=      5-min Rain = 0
KTUR 190140Z 12008KT 29/20 A2983 RMK A01 T02890200  RH  060%=      5-min Rain = 0
KTUR 190145Z 12008KT 29/20 A2983 RMK A01 T02880199  RH  060%=      5-min Rain = 0
KTUR 190150Z 12009KT 29/20 A2983 RMK A01 T02880198  RH  060%=      5-min Rain = 0
KTUR 190155Z 12010KT 29/20 A2982 RMK A01 T02870198  RH  060%=      5-min Rain = 0
KTUR 190200Z 12010KT 29/20 A2982 RMK A01 T02860198  RH  061%=      5-min Rain = 0
KTUR 190205Z 12009KT 28/20 A2982 RMK A01 T02840200  RH  062%=      5-min Rain = 0
KTUR 190210Z 12010KT 28/20 A2981 RMK A01 T02820200  RH  063%=      5-min Rain = 0
KTUR 190215Z 11009KT 28/20 A298 RMK A01 T02800201  RH  064%=      5-min Rain = 0
KTUR 190220Z 11009KT 28/20 A2979 RMK A01 T02780200  RH  064%=      5-min Rain = 0
KTUR 190225Z 12008KT 28/20 A298 RMK A01 T02770202  RH  065%=      5-min Rain = 0
KTUR 190230Z 11008KT 27/20 A2979 RMK A01 T02740202  RH  067%=      5-min Rain = 0
KTUR 190235Z 11009G14KT 27/20 A2979 RMK A01 T02710204  RH  069%=      5-min Rain = 0
KTUR 190240Z 13013KT 27/20 A2978 RMK A01 T02680202  RH  069%=      5-min Rain = 0
KTUR 190245Z 13013KT 27/18 A2978 RMK A01 T02650179  RH  061%=      5-min Rain = 0
KTUR 190250Z 13012KT 26/17 A2978 RMK A01 T02600172  RH  060%=      5-min Rain = 0
KTUR 190255Z 12009KT 25/17 A2977 RMK A01 T02530167  RH  060%=      5-min Rain = 0
KTUR 190300Z 12007KT 25/17 A2977 RMK A01 T02520168  RH  061%=      5-min Rain = 0
KTUR 190305Z 13010KT 25/17 A2978 RMK A01 T02500171  RH  063%=      5-min Rain = 0
KTUR 190310Z 13010KT 25/18 A2979 RMK A01 T02450175  RH  067%=      5-min Rain = 0
KTUR 190315Z 14010KT 24/18 A298 RMK A01 T02420182  RH  071%=      5-min Rain = 0
KTUR 190320Z 13009KT 24/19 A2982 RMK A01 T02380185  RH  074%=      5-min Rain = 0
KTUR 190325Z 13009KT 24/19 A2983 RMK A01 T02350186  RH  076%=      5-min Rain = 0
KTUR 190330Z 13010KT 23/19 A2985 RMK A01 T02330187  RH  077%=      5-min Rain = 0
KTUR 190335Z 14012G18KT 23/18 A2985 RMK A01 T02320179  RH  074%=      5-min Rain = 0
KTUR 190340Z 14015KT 23/15 A2985 RMK A01 T02320149  RH  061%=      5-min Rain = 0
KTUR 190345Z 14016KT 23/14 A2986 RMK A01 T02280141  RH  059%=      5-min Rain = 0
KTUR 190350Z 15019G25KT 22/14 A2987 RMK A01 T02230141  RH  061%=      5-min Rain = 0
KTUR 190355Z 15022G29KT 22/14 A2987 RMK A01 T02150141  RH  064%=      5-min Rain = 0
KTUR 190400Z 16019G24KT 21/14 A2987 RMK A01 T02130144  RH  066%=      5-min Rain = 0
KTUR 190405Z 16017KT 21/15 A2987 RMK A01 T02110146  RH  068%=      5-min Rain = 0
KTUR 190410Z 16016KT 21/15 A2987 RMK A01 T02090148  RH  069%=      5-min Rain = 0
KTUR 190415Z 17017KT 21/15 A2986 RMK A01 T02080147  RH  070%=      5-min Rain = 0
KTUR 190420Z 18015KT 21/15 A2985 RMK A01 T02070148  RH  071%=      5-min Rain = 0
KTUR 190425Z 18016KT 21/15 A2985 RMK A01 T02060149  RH  072%=      5-min Rain = 0
KTUR 190430Z 19014KT 21/15 A2985 RMK A01 T02050151  RH  073%=      5-min Rain = 0
KTUR 190435Z 20013KT 21/15 A2986 RMK A01 T02050152  RH  074%=      5-min Rain = 0
KTUR 190440Z 20012KT 21/15 A2986 RMK A01 T02050153  RH  074%=      5-min Rain = 0
KTUR 190445Z 20011KT 21/15 A2985 RMK A01 T02050154  RH  074%=      5-min Rain = 0
KTUR 190450Z 18010KT 21/15 A2986 RMK A01 T02050154  RH  074%=      5-min Rain = 0
KTUR 190455Z 18009KT 21/15 A2986 RMK A01 T02060153  RH  073%=      5-min Rain = 0

Page generated in 0.0261 seconds.